sensor_id;sensor_type;location;lat;lon;timestamp;P1;durP1;ratioP1;P2;durP2;ratioP2
77234;SDS011;66253;50.526;14.974;2024-01-11T00:00:56;29.50;;;10.00;;
77234;SDS011;66253;50.526;14.974;2024-01-11T00:03:24;23.70;;;9.80;;
77234;SDS011;66253;50.526;14.974;2024-01-11T00:05:52;26.10;;;9.40;;
77234;SDS011;66253;50.526;14.974;2024-01-11T00:08:21;27.40;;;10.20;;
77234;SDS011;66253;50.526;14.974;2024-01-11T00:10:49;23.50;;;9.00;;
77234;SDS011;66253;50.526;14.974;2024-01-11T00:13:17;26.30;;;9.30;;
77234;SDS011;66253;50.526;14.974;2024-01-11T00:15:45;27.10;;;10.50;;
77234;SDS011;66253;50.526;14.974;2024-01-11T00:18:13;28.10;;;9.60;;
77234;SDS011;66253;50.526;14.974;2024-01-11T00:20:41;26.10;;;10.10;;
77234;SDS011;66253;50.526;14.974;2024-01-11T00:23:10;22.20;;;9.30;;
77234;SDS011;66253;50.526;14.974;2024-01-11T00:25:38;26.40;;;8.70;;
77234;SDS011;66253;50.526;14.974;2024-01-11T00:28:06;22.40;;;9.30;;
77234;SDS011;66253;50.526;14.974;2024-01-11T00:30:34;26.90;;;9.70;;
77234;SDS011;66253;50.526;14.974;2024-01-11T00:33:03;31.20;;;10.90;;
77234;SDS011;66253;50.526;14.974;2024-01-11T00:35:31;28.60;;;10.20;;
77234;SDS011;66253;50.526;14.974;2024-01-11T00:37:59;26.70;;;8.70;;
77234;SDS011;66253;50.526;14.974;2024-01-11T00:40:28;23.40;;;9.00;;
77234;SDS011;66253;50.526;14.974;2024-01-11T00:42:56;27.10;;;9.80;;
77234;SDS011;66253;50.526;14.974;2024-01-11T00:45:24;23.80;;;9.20;;
77234;SDS011;66253;50.526;14.974;2024-01-11T00:47:52;25.30;;;8.70;;
77234;SDS011;66253;50.526;14.974;2024-01-11T00:50:21;25.70;;;8.70;;
77234;SDS011;66253;50.526;14.974;2024-01-11T00:52:49;20.00;;;7.40;;
77234;SDS011;66253;50.526;14.974;2024-01-11T00:55:17;24.30;;;7.90;;
77234;SDS011;66253;50.526;14.974;2024-01-11T00:57:45;25.20;;;8.70;;
77234;SDS011;66253;50.526;14.974;2024-01-11T01:00:14;28.70;;;9.80;;
77234;SDS011;66253;50.526;14.974;2024-01-11T01:02:42;28.80;;;9.40;;
77234;SDS011;66253;50.526;14.974;2024-01-11T01:05:11;31.90;;;11.10;;
77234;SDS011;66253;50.526;14.974;2024-01-11T01:07:39;27.60;;;9.40;;
77234;SDS011;66253;50.526;14.974;2024-01-11T01:10:08;28.60;;;9.50;;
77234;SDS011;66253;50.526;14.974;2024-01-11T01:12:39;20.50;;;8.50;;
77234;SDS011;66253;50.526;14.974;2024-01-11T01:15:08;25.40;;;9.20;;
77234;SDS011;66253;50.526;14.974;2024-01-11T01:17:36;19.50;;;7.30;;
77234;SDS011;66253;50.526;14.974;2024-01-11T01:20:05;26.50;;;8.30;;
77234;SDS011;66253;50.526;14.974;2024-01-11T01:22:35;25.30;;;9.10;;
77234;SDS011;66253;50.526;14.974;2024-01-11T01:25:04;24.70;;;8.10;;
77234;SDS011;66253;50.526;14.974;2024-01-11T01:27:32;24.50;;;9.30;;
77234;SDS011;66253;50.526;14.974;2024-01-11T01:30:04;24.50;;;9.20;;
77234;SDS011;66253;50.526;14.974;2024-01-11T01:32:33;27.50;;;7.90;;
77234;SDS011;66253;50.526;14.974;2024-01-11T01:35:01;21.80;;;7.80;;
77234;SDS011;66253;50.526;14.974;2024-01-11T01:37:30;22.40;;;6.90;;
77234;SDS011;66253;50.526;14.974;2024-01-11T01:39:58;24.10;;;7.80;;
77234;SDS011;66253;50.526;14.974;2024-01-11T01:42:28;25.50;;;8.90;;
77234;SDS011;66253;50.526;14.974;2024-01-11T01:44:56;26.30;;;9.10;;
77234;SDS011;66253;50.526;14.974;2024-01-11T01:47:24;28.20;;;10.20;;
77234;SDS011;66253;50.526;14.974;2024-01-11T01:49:53;26.00;;;8.60;;
77234;SDS011;66253;50.526;14.974;2024-01-11T01:52:22;23.40;;;8.20;;
77234;SDS011;66253;50.526;14.974;2024-01-11T01:54:50;21.30;;;8.00;;
77234;SDS011;66253;50.526;14.974;2024-01-11T01:57:19;25.10;;;8.40;;
77234;SDS011;66253;50.526;14.974;2024-01-11T01:59:49;26.60;;;8.10;;
77234;SDS011;66253;50.526;14.974;2024-01-11T02:02:18;22.60;;;8.20;;
77234;SDS011;66253;50.526;14.974;2024-01-11T02:04:47;24.60;;;8.00;;
77234;SDS011;66253;50.526;14.974;2024-01-11T02:07:16;23.60;;;8.20;;
77234;SDS011;66253;50.526;14.974;2024-01-11T02:09:45;21.60;;;7.60;;
77234;SDS011;66253;50.526;14.974;2024-01-11T02:12:14;28.20;;;8.30;;
77234;SDS011;66253;50.526;14.974;2024-01-11T02:14:43;23.70;;;7.60;;
77234;SDS011;66253;50.526;14.974;2024-01-11T02:17:12;24.80;;;6.40;;
77234;SDS011;66253;50.526;14.974;2024-01-11T02:19:40;20.60;;;7.20;;
77234;SDS011;66253;50.526;14.974;2024-01-11T02:22:11;21.80;;;7.50;;
77234;SDS011;66253;50.526;14.974;2024-01-11T02:24:44;19.20;;;6.70;;
77234;SDS011;66253;50.526;14.974;2024-01-11T02:27:13;21.60;;;7.90;;
77234;SDS011;66253;50.526;14.974;2024-01-11T02:29:41;26.20;;;7.50;;
77234;SDS011;66253;50.526;14.974;2024-01-11T02:32:09;21.40;;;7.00;;
77234;SDS011;66253;50.526;14.974;2024-01-11T02:34:38;21.20;;;6.60;;
77234;SDS011;66253;50.526;14.974;2024-01-11T02:37:06;21.20;;;7.00;;
77234;SDS011;66253;50.526;14.974;2024-01-11T02:39:35;23.60;;;7.20;;
77234;SDS011;66253;50.526;14.974;2024-01-11T02:42:03;22.90;;;7.50;;
77234;SDS011;66253;50.526;14.974;2024-01-11T02:44:32;23.70;;;7.40;;
77234;SDS011;66253;50.526;14.974;2024-01-11T02:47:00;22.50;;;7.30;;
77234;SDS011;66253;50.526;14.974;2024-01-11T02:49:28;21.20;;;7.60;;
77234;SDS011;66253;50.526;14.974;2024-01-11T02:51:57;24.80;;;10.10;;
77234;SDS011;66253;50.526;14.974;2024-01-11T02:54:25;22.50;;;8.60;;
77234;SDS011;66253;50.526;14.974;2024-01-11T02:56:53;20.80;;;8.20;;
77234;SDS011;66253;50.526;14.974;2024-01-11T02:59:22;24.20;;;7.30;;
77234;SDS011;66253;50.526;14.974;2024-01-11T03:01:50;25.60;;;7.60;;
77234;SDS011;66253;50.526;14.974;2024-01-11T03:04:18;20.80;;;6.90;;
77234;SDS011;66253;50.526;14.974;2024-01-11T03:06:46;19.10;;;7.60;;
77234;SDS011;66253;50.526;14.974;2024-01-11T03:09:14;21.60;;;8.10;;
77234;SDS011;66253;50.526;14.974;2024-01-11T03:11:43;15.40;;;4.90;;
77234;SDS011;66253;50.526;14.974;2024-01-11T03:14:11;19.60;;;6.40;;
77234;SDS011;66253;50.526;14.974;2024-01-11T03:16:39;22.40;;;6.80;;
77234;SDS011;66253;50.526;14.974;2024-01-11T03:19:07;28.00;;;8.80;;
77234;SDS011;66253;50.526;14.974;2024-01-11T03:21:37;20.10;;;5.90;;
77234;SDS011;66253;50.526;14.974;2024-01-11T03:24:08;19.50;;;6.10;;
77234;SDS011;66253;50.526;14.974;2024-01-11T03:26:37;17.30;;;6.10;;
77234;SDS011;66253;50.526;14.974;2024-01-11T03:29:05;19.00;;;5.40;;
77234;SDS011;66253;50.526;14.974;2024-01-11T03:31:33;19.70;;;6.00;;
77234;SDS011;66253;50.526;14.974;2024-01-11T03:34:02;20.90;;;7.40;;
77234;SDS011;66253;50.526;14.974;2024-01-11T03:36:30;18.90;;;6.20;;
77234;SDS011;66253;50.526;14.974;2024-01-11T03:38:59;22.90;;;7.40;;
77234;SDS011;66253;50.526;14.974;2024-01-11T03:41:28;13.00;;;5.30;;
77234;SDS011;66253;50.526;14.974;2024-01-11T03:43:56;20.70;;;6.30;;
77234;SDS011;66253;50.526;14.974;2024-01-11T03:46:25;22.90;;;6.60;;
77234;SDS011;66253;50.526;14.974;2024-01-11T03:48:53;22.40;;;7.60;;
77234;SDS011;66253;50.526;14.974;2024-01-11T03:51:21;18.40;;;6.40;;
77234;SDS011;66253;50.526;14.974;2024-01-11T03:53:49;17.00;;;5.60;;
77234;SDS011;66253;50.526;14.974;2024-01-11T03:56:17;14.70;;;5.90;;
77234;SDS011;66253;50.526;14.974;2024-01-11T03:58:46;20.50;;;6.00;;
77234;SDS011;66253;50.526;14.974;2024-01-11T04:01:14;16.80;;;5.80;;
77234;SDS011;66253;50.526;14.974;2024-01-11T04:03:42;11.60;;;5.80;;
77234;SDS011;66253;50.526;14.974;2024-01-11T04:06:16;17.50;;;5.30;;
77234;SDS011;66253;50.526;14.974;2024-01-11T04:11:14;11.00;;;3.80;;
77234;SDS011;66253;50.526;14.974;2024-01-11T04:13:43;14.30;;;5.10;;
77234;SDS011;66253;50.526;14.974;2024-01-11T04:16:11;17.80;;;5.20;;
77234;SDS011;66253;50.526;14.974;2024-01-11T04:18:39;14.70;;;4.80;;
77234;SDS011;66253;50.526;14.974;2024-01-11T04:21:07;13.50;;;5.00;;
77234;SDS011;66253;50.526;14.974;2024-01-11T04:23:45;20.20;;;5.60;;
77234;SDS011;66253;50.526;14.974;2024-01-11T04:26:14;13.00;;;5.50;;
77234;SDS011;66253;50.526;14.974;2024-01-11T04:28:43;20.10;;;6.20;;
77234;SDS011;66253;50.526;14.974;2024-01-11T04:31:11;18.10;;;5.20;;
77234;SDS011;66253;50.526;14.974;2024-01-11T04:33:41;13.70;;;5.00;;
77234;SDS011;66253;50.526;14.974;2024-01-11T04:36:09;13.90;;;4.80;;
77234;SDS011;66253;50.526;14.974;2024-01-11T04:38:38;17.10;;;6.20;;
77234;SDS011;66253;50.526;14.974;2024-01-11T04:41:08;16.50;;;5.90;;
77234;SDS011;66253;50.526;14.974;2024-01-11T04:43:40;15.30;;;5.40;;
77234;SDS011;66253;50.526;14.974;2024-01-11T04:46:16;14.80;;;5.70;;
77234;SDS011;66253;50.526;14.974;2024-01-11T04:48:45;18.80;;;5.30;;
77234;SDS011;66253;50.526;14.974;2024-01-11T04:51:14;18.80;;;5.90;;
77234;SDS011;66253;50.526;14.974;2024-01-11T04:53:43;15.90;;;5.70;;
77234;SDS011;66253;50.526;14.974;2024-01-11T04:56:13;20.70;;;7.80;;
77234;SDS011;66253;50.526;14.974;2024-01-11T04:58:42;19.60;;;5.60;;
77234;SDS011;66253;50.526;14.974;2024-01-11T05:01:12;16.10;;;4.90;;
77234;SDS011;66253;50.526;14.974;2024-01-11T05:03:41;18.10;;;4.70;;
77234;SDS011;66253;50.526;14.974;2024-01-11T05:06:15;19.20;;;5.70;;
77234;SDS011;66253;50.526;14.974;2024-01-11T05:08:44;16.00;;;5.00;;
77234;SDS011;66253;50.526;14.974;2024-01-11T05:11:17;16.20;;;5.60;;
77234;SDS011;66253;50.526;14.974;2024-01-11T05:13:46;14.70;;;4.00;;
77234;SDS011;66253;50.526;14.974;2024-01-11T05:16:19;13.20;;;4.30;;
77234;SDS011;66253;50.526;14.974;2024-01-11T05:18:48;14.40;;;4.60;;
77234;SDS011;66253;50.526;14.974;2024-01-11T05:21:17;12.20;;;4.00;;
77234;SDS011;66253;50.526;14.974;2024-01-11T05:23:45;14.60;;;4.70;;
77234;SDS011;66253;50.526;14.974;2024-01-11T05:26:14;13.70;;;4.80;;
77234;SDS011;66253;50.526;14.974;2024-01-11T05:28:43;15.60;;;4.50;;
77234;SDS011;66253;50.526;14.974;2024-01-11T05:31:12;14.80;;;3.90;;
77234;SDS011;66253;50.526;14.974;2024-01-11T05:33:41;12.10;;;3.80;;
77234;SDS011;66253;50.526;14.974;2024-01-11T05:36:10;12.40;;;3.90;;
77234;SDS011;66253;50.526;14.974;2024-01-11T05:38:38;14.80;;;5.30;;
77234;SDS011;66253;50.526;14.974;2024-01-11T05:41:07;12.70;;;4.40;;
77234;SDS011;66253;50.526;14.974;2024-01-11T05:43:36;14.00;;;4.20;;
77234;SDS011;66253;50.526;14.974;2024-01-11T05:46:07;15.20;;;4.00;;
77234;SDS011;66253;50.526;14.974;2024-01-11T05:48:35;15.00;;;4.60;;
77234;SDS011;66253;50.526;14.974;2024-01-11T05:51:03;13.90;;;4.30;;
77234;SDS011;66253;50.526;14.974;2024-01-11T05:53:32;15.90;;;5.20;;
77234;SDS011;66253;50.526;14.974;2024-01-11T05:56:00;15.00;;;4.70;;
77234;SDS011;66253;50.526;14.974;2024-01-11T05:58:33;10.30;;;4.20;;
77234;SDS011;66253;50.526;14.974;2024-01-11T06:01:01;15.60;;;5.10;;
77234;SDS011;66253;50.526;14.974;2024-01-11T06:03:30;9.90;;;3.90;;
77234;SDS011;66253;50.526;14.974;2024-01-11T06:05:58;14.00;;;3.30;;
77234;SDS011;66253;50.526;14.974;2024-01-11T06:08:27;21.70;;;6.80;;
77234;SDS011;66253;50.526;14.974;2024-01-11T06:10:56;12.60;;;4.30;;
77234;SDS011;66253;50.526;14.974;2024-01-11T06:13:25;13.50;;;4.50;;
77234;SDS011;66253;50.526;14.974;2024-01-11T06:15:53;13.30;;;4.30;;
77234;SDS011;66253;50.526;14.974;2024-01-11T06:18:21;17.00;;;5.60;;
77234;SDS011;66253;50.526;14.974;2024-01-11T06:20:49;11.00;;;4.40;;
77234;SDS011;66253;50.526;14.974;2024-01-11T06:23:18;13.50;;;4.50;;
77234;SDS011;66253;50.526;14.974;2024-01-11T06:25:46;13.60;;;4.60;;
77234;SDS011;66253;50.526;14.974;2024-01-11T06:28:17;15.80;;;5.10;;
77234;SDS011;66253;50.526;14.974;2024-01-11T06:30:45;15.20;;;5.20;;
77234;SDS011;66253;50.526;14.974;2024-01-11T06:33:13;15.50;;;5.10;;
77234;SDS011;66253;50.526;14.974;2024-01-11T06:35:41;14.40;;;5.20;;
77234;SDS011;66253;50.526;14.974;2024-01-11T06:38:10;15.00;;;4.50;;
77234;SDS011;66253;50.526;14.974;2024-01-11T06:40:38;20.60;;;7.60;;
77234;SDS011;66253;50.526;14.974;2024-01-11T06:43:06;30.50;;;9.20;;
77234;SDS011;66253;50.526;14.974;2024-01-11T06:45:35;33.50;;;9.70;;
77234;SDS011;66253;50.526;14.974;2024-01-11T06:48:03;79.50;;;17.00;;
77234;SDS011;66253;50.526;14.974;2024-01-11T06:50:32;52.20;;;14.00;;
77234;SDS011;66253;50.526;14.974;2024-01-11T06:53:01;51.50;;;16.20;;
77234;SDS011;66253;50.526;14.974;2024-01-11T06:55:29;61.50;;;20.60;;
77234;SDS011;66253;50.526;14.974;2024-01-11T06:57:58;61.90;;;16.30;;
77234;SDS011;66253;50.526;14.974;2024-01-11T07:00:26;79.00;;;20.80;;
77234;SDS011;66253;50.526;14.974;2024-01-11T07:02:54;34.20;;;11.60;;
77234;SDS011;66253;50.526;14.974;2024-01-11T07:05:23;40.10;;;13.10;;
77234;SDS011;66253;50.526;14.974;2024-01-11T07:07:51;55.60;;;15.80;;
77234;SDS011;66253;50.526;14.974;2024-01-11T07:10:19;60.60;;;16.60;;
77234;SDS011;66253;50.526;14.974;2024-01-11T07:12:47;35.90;;;14.10;;
77234;SDS011;66253;50.526;14.974;2024-01-11T07:15:16;104.20;;;25.70;;
77234;SDS011;66253;50.526;14.974;2024-01-11T07:17:44;81.10;;;21.80;;
77234;SDS011;66253;50.526;14.974;2024-01-11T07:20:12;53.90;;;17.00;;
77234;SDS011;66253;50.526;14.974;2024-01-11T07:22:41;99.00;;;25.70;;
77234;SDS011;66253;50.526;14.974;2024-01-11T07:25:09;77.00;;;22.40;;
77234;SDS011;66253;50.526;14.974;2024-01-11T07:27:37;54.60;;;16.80;;
77234;SDS011;66253;50.526;14.974;2024-01-11T07:30:07;33.30;;;11.00;;
77234;SDS011;66253;50.526;14.974;2024-01-11T07:32:38;30.10;;;9.70;;
77234;SDS011;66253;50.526;14.974;2024-01-11T07:35:07;25.40;;;8.80;;
77234;SDS011;66253;50.526;14.974;2024-01-11T07:37:36;32.00;;;7.00;;
77234;SDS011;66253;50.526;14.974;2024-01-11T07:40:05;17.90;;;7.10;;
77234;SDS011;66253;50.526;14.974;2024-01-11T07:42:35;24.70;;;8.80;;
77234;SDS011;66253;50.526;14.974;2024-01-11T07:45:04;27.30;;;7.90;;
77234;SDS011;66253;50.526;14.974;2024-01-11T07:47:33;18.20;;;6.30;;
77234;SDS011;66253;50.526;14.974;2024-01-11T07:50:03;18.00;;;6.00;;
77234;SDS011;66253;50.526;14.974;2024-01-11T07:52:33;16.00;;;6.10;;
77234;SDS011;66253;50.526;14.974;2024-01-11T07:55:01;21.60;;;6.20;;
77234;SDS011;66253;50.526;14.974;2024-01-11T07:57:30;16.30;;;5.30;;
77234;SDS011;66253;50.526;14.974;2024-01-11T07:59:59;13.50;;;5.50;;
77234;SDS011;66253;50.526;14.974;2024-01-11T08:02:27;14.20;;;5.30;;
77234;SDS011;66253;50.526;14.974;2024-01-11T08:04:56;15.50;;;5.30;;
77234;SDS011;66253;50.526;14.974;2024-01-11T08:07:24;15.90;;;4.90;;
77234;SDS011;66253;50.526;14.974;2024-01-11T08:09:52;15.80;;;5.70;;
77234;SDS011;66253;50.526;14.974;2024-01-11T08:12:21;13.10;;;4.40;;
77234;SDS011;66253;50.526;14.974;2024-01-11T08:14:50;14.00;;;5.80;;
77234;SDS011;66253;50.526;14.974;2024-01-11T08:17:18;15.80;;;4.90;;
77234;SDS011;66253;50.526;14.974;2024-01-11T08:19:47;12.10;;;4.90;;
77234;SDS011;66253;50.526;14.974;2024-01-11T08:22:16;11.80;;;5.30;;
77234;SDS011;66253;50.526;14.974;2024-01-11T08:24:47;14.80;;;6.60;;
77234;SDS011;66253;50.526;14.974;2024-01-11T08:27:17;16.20;;;6.00;;
77234;SDS011;66253;50.526;14.974;2024-01-11T08:29:47;14.10;;;5.50;;
77234;SDS011;66253;50.526;14.974;2024-01-11T08:32:18;16.20;;;5.80;;
77234;SDS011;66253;50.526;14.974;2024-01-11T08:34:54;17.10;;;5.80;;
77234;SDS011;66253;50.526;14.974;2024-01-11T08:37:24;18.60;;;6.40;;
77234;SDS011;66253;50.526;14.974;2024-01-11T08:39:53;20.30;;;8.50;;
77234;SDS011;66253;50.526;14.974;2024-01-11T08:42:23;21.50;;;8.50;;
77234;SDS011;66253;50.526;14.974;2024-01-11T08:44:55;23.20;;;8.00;;
77234;SDS011;66253;50.526;14.974;2024-01-11T08:47:27;14.20;;;5.90;;
77234;SDS011;66253;50.526;14.974;2024-01-11T08:49:57;16.70;;;6.30;;
77234;SDS011;66253;50.526;14.974;2024-01-11T08:52:26;16.40;;;6.90;;
77234;SDS011;66253;50.526;14.974;2024-01-11T08:55:08;16.50;;;5.90;;
77234;SDS011;66253;50.526;14.974;2024-01-11T08:57:46;14.40;;;5.30;;
77234;SDS011;66253;50.526;14.974;2024-01-11T09:00:24;17.20;;;5.80;;
77234;SDS011;66253;50.526;14.974;2024-01-11T09:02:52;18.30;;;7.10;;
77234;SDS011;66253;50.526;14.974;2024-01-11T09:05:20;22.10;;;7.90;;
77234;SDS011;66253;50.526;14.974;2024-01-11T09:07:49;22.80;;;8.50;;
77234;SDS011;66253;50.526;14.974;2024-01-11T09:10:19;21.80;;;8.40;;
77234;SDS011;66253;50.526;14.974;2024-01-11T09:12:47;18.60;;;7.60;;
77234;SDS011;66253;50.526;14.974;2024-01-11T09:15:15;27.10;;;10.10;;
77234;SDS011;66253;50.526;14.974;2024-01-11T09:17:44;24.10;;;9.70;;
77234;SDS011;66253;50.526;14.974;2024-01-11T09:20:12;23.40;;;10.00;;
77234;SDS011;66253;50.526;14.974;2024-01-11T09:22:41;28.40;;;10.20;;
77234;SDS011;66253;50.526;14.974;2024-01-11T09:25:11;22.10;;;9.50;;
77234;SDS011;66253;50.526;14.974;2024-01-11T09:27:39;22.00;;;10.10;;
77234;SDS011;66253;50.526;14.974;2024-01-11T09:30:08;24.90;;;10.40;;
77234;SDS011;66253;50.526;14.974;2024-01-11T09:32:37;28.90;;;12.30;;
77234;SDS011;66253;50.526;14.974;2024-01-11T09:35:06;24.30;;;9.40;;
77234;SDS011;66253;50.526;14.974;2024-01-11T09:37:34;27.80;;;10.20;;
77234;SDS011;66253;50.526;14.974;2024-01-11T09:40:03;61.00;;;18.80;;
77234;SDS011;66253;50.526;14.974;2024-01-11T09:42:33;43.30;;;14.10;;
77234;SDS011;66253;50.526;14.974;2024-01-11T09:45:01;34.10;;;13.30;;
77234;SDS011;66253;50.526;14.974;2024-01-11T09:47:33;34.10;;;12.40;;
77234;SDS011;66253;50.526;14.974;2024-01-11T09:50:03;27.50;;;11.30;;
77234;SDS011;66253;50.526;14.974;2024-01-11T09:52:32;25.20;;;11.20;;
77234;SDS011;66253;50.526;14.974;2024-01-11T09:55:01;25.40;;;10.50;;
77234;SDS011;66253;50.526;14.974;2024-01-11T09:57:31;25.40;;;10.50;;
77234;SDS011;66253;50.526;14.974;2024-01-11T10:00:04;22.30;;;9.20;;
77234;SDS011;66253;50.526;14.974;2024-01-11T10:02:34;28.10;;;11.60;;
77234;SDS011;66253;50.526;14.974;2024-01-11T10:05:03;28.10;;;11.80;;
77234;SDS011;66253;50.526;14.974;2024-01-11T10:07:32;27.70;;;10.40;;
77234;SDS011;66253;50.526;14.974;2024-01-11T10:10:00;22.90;;;9.50;;
77234;SDS011;66253;50.526;14.974;2024-01-11T10:12:31;20.90;;;8.70;;
77234;SDS011;66253;50.526;14.974;2024-01-11T10:15:05;20.90;;;8.90;;
77234;SDS011;66253;50.526;14.974;2024-01-11T10:17:35;22.30;;;9.20;;
77234;SDS011;66253;50.526;14.974;2024-01-11T10:20:07;20.40;;;8.00;;
77234;SDS011;66253;50.526;14.974;2024-01-11T10:22:36;22.90;;;8.60;;
77234;SDS011;66253;50.526;14.974;2024-01-11T10:25:11;21.60;;;8.70;;
77234;SDS011;66253;50.526;14.974;2024-01-11T10:27:41;21.30;;;8.90;;
77234;SDS011;66253;50.526;14.974;2024-01-11T10:30:11;21.80;;;8.90;;
77234;SDS011;66253;50.526;14.974;2024-01-11T10:32:41;22.00;;;8.20;;
77234;SDS011;66253;50.526;14.974;2024-01-11T10:35:10;21.30;;;9.10;;
77234;SDS011;66253;50.526;14.974;2024-01-11T10:37:38;20.50;;;7.60;;
77234;SDS011;66253;50.526;14.974;2024-01-11T10:40:08;23.30;;;9.10;;
77234;SDS011;66253;50.526;14.974;2024-01-11T10:42:37;17.90;;;9.50;;
77234;SDS011;66253;50.526;14.974;2024-01-11T10:45:10;17.80;;;8.80;;
77234;SDS011;66253;50.526;14.974;2024-01-11T10:47:40;20.40;;;8.40;;
77234;SDS011;66253;50.526;14.974;2024-01-11T10:50:16;22.50;;;9.30;;
77234;SDS011;66253;50.526;14.974;2024-01-11T10:52:48;23.60;;;9.50;;
77234;SDS011;66253;50.526;14.974;2024-01-11T10:55:28;20.40;;;8.30;;
77234;SDS011;66253;50.526;14.974;2024-01-11T10:58:01;25.20;;;8.60;;
77234;SDS011;66253;50.526;14.974;2024-01-11T11:00:30;23.00;;;9.40;;
77234;SDS011;66253;50.526;14.974;2024-01-11T11:03:01;30.90;;;11.70;;
77234;SDS011;66253;50.526;14.974;2024-01-11T11:05:31;25.70;;;10.20;;
77234;SDS011;66253;50.526;14.974;2024-01-11T11:08:01;23.00;;;9.50;;
77234;SDS011;66253;50.526;14.974;2024-01-11T11:10:31;22.50;;;9.10;;
77234;SDS011;66253;50.526;14.974;2024-01-11T11:13:00;22.50;;;9.30;;
77234;SDS011;66253;50.526;14.974;2024-01-11T11:15:29;23.50;;;9.70;;
77234;SDS011;66253;50.526;14.974;2024-01-11T11:17:59;20.10;;;8.20;;
77234;SDS011;66253;50.526;14.974;2024-01-11T11:20:28;21.10;;;8.00;;
77234;SDS011;66253;50.526;14.974;2024-01-11T11:23:04;20.90;;;8.00;;
77234;SDS011;66253;50.526;14.974;2024-01-11T11:25:33;19.10;;;8.30;;
77234;SDS011;66253;50.526;14.974;2024-01-11T11:28:02;21.70;;;9.00;;
77234;SDS011;66253;50.526;14.974;2024-01-11T11:30:31;21.40;;;7.70;;
77234;SDS011;66253;50.526;14.974;2024-01-11T11:32:59;17.40;;;7.30;;
77234;SDS011;66253;50.526;14.974;2024-01-11T11:35:35;16.80;;;7.70;;
77234;SDS011;66253;50.526;14.974;2024-01-11T11:38:04;18.90;;;7.50;;
77234;SDS011;66253;50.526;14.974;2024-01-11T11:40:33;16.70;;;7.00;;
77234;SDS011;66253;50.526;14.974;2024-01-11T11:43:05;14.20;;;6.50;;
77234;SDS011;66253;50.526;14.974;2024-01-11T11:45:34;16.50;;;6.70;;
77234;SDS011;66253;50.526;14.974;2024-01-11T11:48:03;19.10;;;8.10;;
77234;SDS011;66253;50.526;14.974;2024-01-11T11:51:09;20.20;;;7.70;;
77234;SDS011;66253;50.526;14.974;2024-01-11T11:53:40;18.60;;;8.40;;
77234;SDS011;66253;50.526;14.974;2024-01-11T11:56:11;17.50;;;7.10;;
77234;SDS011;66253;50.526;14.974;2024-01-11T12:01:06;17.90;;;6.80;;
77234;SDS011;66253;50.526;14.974;2024-01-11T12:03:34;15.80;;;6.00;;
77234;SDS011;66253;50.526;14.974;2024-01-11T12:06:07;18.80;;;6.40;;
77234;SDS011;66253;50.526;14.974;2024-01-11T12:08:36;16.10;;;6.70;;
77234;SDS011;66253;50.526;14.974;2024-01-11T12:11:07;16.20;;;7.20;;
77234;SDS011;66253;50.526;14.974;2024-01-11T12:13:39;18.20;;;6.70;;
77234;SDS011;66253;50.526;14.974;2024-01-11T12:16:07;15.90;;;6.20;;
77234;SDS011;66253;50.526;14.974;2024-01-11T12:18:37;16.60;;;6.60;;
77234;SDS011;66253;50.526;14.974;2024-01-11T12:21:07;15.70;;;6.30;;
77234;SDS011;66253;50.526;14.974;2024-01-11T12:23:36;16.50;;;6.40;;
77234;SDS011;66253;50.526;14.974;2024-01-11T12:26:07;17.90;;;8.60;;
77234;SDS011;66253;50.526;14.974;2024-01-11T12:28:35;23.70;;;10.80;;
77234;SDS011;66253;50.526;14.974;2024-01-11T12:31:04;16.90;;;8.20;;
77234;SDS011;66253;50.526;14.974;2024-01-11T12:33:32;15.40;;;6.40;;
77234;SDS011;66253;50.526;14.974;2024-01-11T12:36:04;13.90;;;6.20;;
77234;SDS011;66253;50.526;14.974;2024-01-11T12:38:34;16.40;;;7.40;;
77234;SDS011;66253;50.526;14.974;2024-01-11T12:41:03;22.20;;;10.30;;
77234;SDS011;66253;50.526;14.974;2024-01-11T12:43:32;18.10;;;8.20;;
77234;SDS011;66253;50.526;14.974;2024-01-11T12:46:01;16.90;;;7.00;;
77234;SDS011;66253;50.526;14.974;2024-01-11T12:48:29;15.80;;;7.00;;
77234;SDS011;66253;50.526;14.974;2024-01-11T12:50:58;14.90;;;5.30;;
77234;SDS011;66253;50.526;14.974;2024-01-11T12:53:26;17.50;;;7.20;;
77234;SDS011;66253;50.526;14.974;2024-01-11T12:56:03;18.60;;;7.40;;
77234;SDS011;66253;50.526;14.974;2024-01-11T12:58:32;24.80;;;9.10;;
77234;SDS011;66253;50.526;14.974;2024-01-11T13:01:01;22.30;;;7.90;;
77234;SDS011;66253;50.526;14.974;2024-01-11T13:03:30;17.40;;;6.30;;
77234;SDS011;66253;50.526;14.974;2024-01-11T13:05:59;15.40;;;6.30;;
77234;SDS011;66253;50.526;14.974;2024-01-11T13:10:56;16.10;;;6.10;;
77234;SDS011;66253;50.526;14.974;2024-01-11T13:13:24;13.80;;;6.50;;
77234;SDS011;66253;50.526;14.974;2024-01-11T13:15:53;16.50;;;6.50;;
77234;SDS011;66253;50.526;14.974;2024-01-11T13:18:21;16.30;;;6.90;;
77234;SDS011;66253;50.526;14.974;2024-01-11T13:20:49;14.00;;;5.30;;
77234;SDS011;66253;50.526;14.974;2024-01-11T13:23:18;15.10;;;5.40;;
77234;SDS011;66253;50.526;14.974;2024-01-11T13:25:47;13.10;;;5.80;;
77234;SDS011;66253;50.526;14.974;2024-01-11T13:28:16;16.10;;;6.20;;
77234;SDS011;66253;50.526;14.974;2024-01-11T13:30:45;15.30;;;6.30;;
77234;SDS011;66253;50.526;14.974;2024-01-11T13:33:13;18.50;;;7.00;;
77234;SDS011;66253;50.526;14.974;2024-01-11T13:35:42;20.40;;;7.80;;
77234;SDS011;66253;50.526;14.974;2024-01-11T13:38:12;14.00;;;5.90;;
77234;SDS011;66253;50.526;14.974;2024-01-11T13:40:40;16.30;;;6.50;;
77234;SDS011;66253;50.526;14.974;2024-01-11T13:43:09;16.50;;;6.30;;
77234;SDS011;66253;50.526;14.974;2024-01-11T13:45:37;16.10;;;5.70;;
77234;SDS011;66253;50.526;14.974;2024-01-11T13:48:05;24.00;;;8.90;;
77234;SDS011;66253;50.526;14.974;2024-01-11T13:50:34;25.40;;;8.30;;
77234;SDS011;66253;50.526;14.974;2024-01-11T13:53:02;21.40;;;6.90;;
77234;SDS011;66253;50.526;14.974;2024-01-11T13:55:31;13.30;;;5.20;;
77234;SDS011;66253;50.526;14.974;2024-01-11T13:57:59;15.90;;;6.80;;
77234;SDS011;66253;50.526;14.974;2024-01-11T14:00:28;13.80;;;5.00;;
77234;SDS011;66253;50.526;14.974;2024-01-11T14:02:56;15.30;;;5.60;;
77234;SDS011;66253;50.526;14.974;2024-01-11T14:05:25;15.00;;;5.60;;
77234;SDS011;66253;50.526;14.974;2024-01-11T14:07:53;15.00;;;6.00;;
77234;SDS011;66253;50.526;14.974;2024-01-11T14:10:21;13.80;;;5.70;;
77234;SDS011;66253;50.526;14.974;2024-01-11T14:12:50;15.80;;;6.60;;
77234;SDS011;66253;50.526;14.974;2024-01-11T14:15:19;13.10;;;5.50;;
77234;SDS011;66253;50.526;14.974;2024-01-11T14:17:47;20.40;;;7.90;;
77234;SDS011;66253;50.526;14.974;2024-01-11T14:20:16;18.30;;;8.60;;
77234;SDS011;66253;50.526;14.974;2024-01-11T14:22:44;16.40;;;8.30;;
77234;SDS011;66253;50.526;14.974;2024-01-11T14:25:13;15.20;;;5.40;;
77234;SDS011;66253;50.526;14.974;2024-01-11T14:27:42;17.00;;;6.00;;
77234;SDS011;66253;50.526;14.974;2024-01-11T14:30:11;14.60;;;6.20;;
77234;SDS011;66253;50.526;14.974;2024-01-11T14:32:40;13.90;;;5.70;;
77234;SDS011;66253;50.526;14.974;2024-01-11T14:35:09;12.90;;;5.50;;
77234;SDS011;66253;50.526;14.974;2024-01-11T14:37:38;14.00;;;5.20;;
77234;SDS011;66253;50.526;14.974;2024-01-11T14:40:08;12.20;;;4.80;;